Time;durP1;ratioP1;P1;durP2;ratioP2;P2;SDS_P1;SDS_P2;PMS_P1;PMS_P2;Temp;Humidity;BMP_temperature;BMP_pressure;BME280_temperature;BME280_humidity;BME280_pressure;Samples;Min_cycle;Max_cycle;Signal;HPM_P1;HPM_P2
2023/06/11 00:01:16;;;;;;;11.73;11.33;;;19.60;99.90;;;;;;5103779;27;20544;-67
2023/06/11 00:03:43;;;;;;;11.40;11.00;;;19.70;99.90;;;;;;5097217;27;21228;-67
2023/06/11 00:06:11;;;;;;;12.13;11.70;;;19.70;99.90;;;;;;5116686;27;20471;-66
2023/06/11 00:08:37;;;;;;;11.60;11.20;;;19.70;99.90;;;;;;5117015;27;20556;-67
2023/06/11 00:11:04;;;;;;;11.80;11.40;;;19.70;99.90;;;;;;5099344;27;20499;-66
2023/06/11 00:13:33;;;;;;;12.07;11.63;;;19.60;99.90;;;;;;5103597;27;20507;-67
2023/06/11 00:16:00;;;;;;;12.00;11.60;;;19.60;99.90;;;;;;5106064;27;20480;-68
2023/06/11 00:18:29;;;;;;;12.00;11.60;;;19.60;99.90;;;;;;5095699;27;20458;-67
2023/06/11 00:20:56;;;;;;;11.83;11.43;;;19.70;99.90;;;;;;5121022;27;20980;-67
2023/06/11 00:23:25;;;;;;;12.20;11.70;;;19.70;99.90;;;;;;5115510;27;21113;-67
2023/06/11 00:25:52;;;;;;;11.97;11.57;;;19.70;99.90;;;;;;5119248;27;20480;-68
2023/06/11 00:28:19;;;;;;;12.87;12.37;;;19.80;99.90;;;;;;5098864;27;21023;-68
2023/06/11 00:30:48;;;;;;;12.07;11.63;;;19.80;99.90;;;;;;5108083;27;20460;-68
2023/06/11 00:33:16;;;;;;;12.40;11.90;;;19.70;99.90;;;;;;5112326;27;20453;-68
2023/06/11 00:35:43;;;;;;;12.60;12.10;;;19.80;99.90;;;;;;5113788;27;20966;-68
2023/06/11 00:38:11;;;;;;;12.37;11.87;;;19.80;99.90;;;;;;5125497;27;20762;-67
2023/06/11 00:40:38;;;;;;;12.57;12.07;;;19.70;99.90;;;;;;5115161;27;20468;-68
2023/06/11 00:43:07;;;;;;;11.93;11.50;;;19.80;99.90;;;;;;5106377;27;21032;-68
2023/06/11 00:45:37;;;;;;;11.73;11.33;;;19.70;99.90;;;;;;5101234;27;20901;-68
2023/06/11 00:48:06;;;;;;;11.50;11.10;;;19.70;99.90;;;;;;5094160;28;20452;-67
2023/06/11 00:50:45;;;;;;;11.80;11.40;;;19.60;99.90;;;;;;5100649;28;20460;-68
2023/06/11 00:53:12;;;;;;;12.23;11.73;;;19.60;99.90;;;;;;5112642;28;20559;-68
2023/06/11 00:55:40;;;;;;;11.80;11.40;;;19.70;99.90;;;;;;5109216;28;20550;-68
2023/06/11 00:58:13;;;;;;;12.33;11.83;;;19.70;99.90;;;;;;5111990;27;20470;-68
2023/06/11 01:00:43;;;;;;;12.23;11.73;;;19.70;99.90;;;;;;5103779;27;20464;-67
2023/06/11 01:03:17;;;;;;;12.27;11.77;;;19.70;99.90;;;;;;5114781;27;20545;-67
2023/06/11 01:05:49;;;;;;;11.80;11.40;;;19.70;99.90;;;;;;5130426;27;20459;-68
2023/06/11 01:08:19;;;;;;;11.80;11.40;;;19.70;99.90;;;;;;5127963;27;20475;-68
2023/06/11 01:10:47;;;;;;;11.50;11.10;;;19.70;99.90;;;;;;5097190;28;20484;-68
2023/06/11 01:13:14;;;;;;;11.60;11.20;;;19.80;99.90;;;;;;5095856;27;21376;-68
2023/06/11 01:15:41;;;;;;;11.50;11.10;;;19.80;99.90;;;;;;5107403;27;20581;-68
2023/06/11 01:18:19;;;;;;;12.03;11.63;;;19.80;99.90;;;;;;5123665;27;20453;-67
2023/06/11 01:20:51;;;;;;;11.93;11.43;;;19.80;99.90;;;;;;5106037;27;20552;-68
2023/06/11 01:23:25;;;;;;;12.17;11.70;;;19.80;99.90;;;;;;5117199;27;20920;-67
2023/06/11 01:26:08;;;;;;;11.80;11.40;;;19.70;99.90;;;;;;5109882;27;20457;-68
2023/06/11 01:28:38;;;;;;;12.10;11.60;;;19.70;99.90;;;;;;5109226;27;20939;-67
2023/06/11 01:31:11;;;;;;;12.40;11.90;;;19.70;99.90;;;;;;5107175;27;20461;-68
2023/06/11 01:33:38;;;;;;;11.67;11.27;;;19.90;99.90;;;;;;5106042;27;20464;-68
2023/06/11 01:36:06;;;;;;;11.90;11.50;;;20.00;99.90;;;;;;5124640;27;20499;-68
2023/06/11 01:38:41;;;;;;;11.40;11.00;;;19.80;99.90;;;;;;5125297;27;20456;-68
2023/06/11 01:41:09;;;;;;;12.90;12.30;;;19.90;99.90;;;;;;5102523;27;20460;-68
2023/06/11 01:43:37;;;;;;;12.00;11.60;;;20.00;99.90;;;;;;5095085;27;20489;-68
2023/06/11 01:46:05;;;;;;;12.00;11.60;;;20.00;99.90;;;;;;5102203;28;20449;-67
2023/06/11 01:48:32;;;;;;;11.53;11.13;;;20.00;99.90;;;;;;5120541;27;20870;-68
2023/06/11 01:51:00;;;;;;;11.93;11.43;;;19.90;99.90;;;;;;5120422;27;20491;-67
2023/06/11 01:53:27;;;;;;;11.30;10.90;;;19.90;99.90;;;;;;5111264;27;20901;-67
2023/06/11 01:55:56;;;;;;;11.90;11.40;;;19.90;99.90;;;;;;5109767;27;20545;-67
2023/06/11 01:58:25;;;;;;;12.27;11.77;;;19.80;99.90;;;;;;5124219;27;20452;-68
2023/06/11 02:00:53;;;;;;;11.50;11.10;;;19.80;99.90;;;;;;5095240;27;20833;-68
2023/06/11 02:03:20;;;;;;;11.70;11.30;;;19.80;99.90;;;;;;5116425;27;20487;-67
2023/06/11 02:05:48;;;;;;;11.80;11.40;;;19.90;99.90;;;;;;5127963;27;20452;-68
2023/06/11 02:08:17;;;;;;;11.57;11.17;;;19.90;99.90;;;;;;5127047;27;20518;-68
2023/06/11 02:10:44;;;;;;;11.77;11.37;;;19.80;99.90;;;;;;5118689;27;20810;-68
2023/06/11 02:13:12;;;;;;;11.80;11.40;;;19.70;99.90;;;;;;5105845;27;20469;-68
2023/06/11 02:15:39;;;;;;;11.70;11.30;;;19.70;99.90;;;;;;5118330;27;20480;-68
2023/06/11 02:18:07;;;;;;;11.80;11.40;;;19.60;99.90;;;;;;5104396;27;20929;-68
2023/06/11 02:20:35;;;;;;;12.07;11.60;;;19.60;99.90;;;;;;5096016;27;20462;-67
2023/06/11 02:23:03;;;;;;;14.27;13.00;;;19.50;99.90;;;;;;5109697;27;20481;-67
2023/06/11 02:25:31;;;;;;;12.40;11.90;;;19.60;99.90;;;;;;5110041;27;20484;-68
2023/06/11 02:27:59;;;;;;;11.30;10.90;;;19.60;99.90;;;;;;5124122;27;20567;-67
2023/06/11 02:30:26;;;;;;;11.03;10.63;;;19.60;99.90;;;;;;5104952;27;20824;-68
2023/06/11 02:32:52;;;;;;;11.10;10.70;;;19.50;99.90;;;;;;5111618;27;20460;-67
2023/06/11 02:35:21;;;;;;;10.90;10.50;;;19.50;99.90;;;;;;5094859;27;20844;-68
2023/06/11 02:37:47;;;;;;;11.30;10.90;;;19.40;99.90;;;;;;5112778;27;20496;-68
2023/06/11 02:40:16;;;;;;;11.73;11.33;;;19.40;99.90;;;;;;5104957;27;20719;-68
2023/06/11 02:42:43;;;;;;;11.10;10.70;;;19.40;99.90;;;;;;5126215;27;20540;-68
2023/06/11 02:45:10;;;;;;;11.20;10.80;;;19.30;99.90;;;;;;5112891;27;20465;-66
2023/06/11 02:47:39;;;;;;;12.13;11.63;;;19.30;99.90;;;;;;5107200;27;20858;-68
2023/06/11 02:50:07;;;;;;;11.10;10.70;;;19.30;99.90;;;;;;5101123;27;20477;-67
2023/06/11 02:52:36;;;;;;;11.10;10.70;;;19.30;99.90;;;;;;5112529;27;20546;-67
2023/06/11 02:55:03;;;;;;;10.93;10.53;;;19.20;99.90;;;;;;5103769;27;20461;-68
2023/06/11 02:57:31;;;;;;;11.00;10.60;;;19.20;99.90;;;;;;5113037;27;20457;-68
2023/06/11 02:59:58;;;;;;;12.53;12.03;;;19.20;99.90;;;;;;5091106;27;20462;-68
2023/06/11 03:02:24;;;;;;;10.70;10.30;;;19.20;99.90;;;;;;5121413;27;20467;-68
2023/06/11 03:04:51;;;;;;;11.17;10.77;;;19.20;99.90;;;;;;5120243;27;20906;-68
2023/06/11 03:07:19;;;;;;;10.60;10.20;;;19.20;99.90;;;;;;5099094;27;20462;-68
2023/06/11 03:09:47;;;;;;;11.60;11.20;;;19.30;99.90;;;;;;5112010;27;20487;-68
2023/06/11 03:12:15;;;;;;;11.10;10.70;;;19.30;99.90;;;;;;5116877;27;20822;-68
2023/06/11 03:14:42;;;;;;;11.10;10.70;;;19.30;99.90;;;;;;5109441;27;20474;-68
2023/06/11 03:17:09;;;;;;;12.03;11.57;;;19.30;99.90;;;;;;5113355;27;20491;-68
2023/06/11 03:19:38;;;;;;;11.37;10.97;;;19.20;99.90;;;;;;5119118;27;20842;-67
2023/06/11 03:22:05;;;;;;;15.07;11.10;;;19.10;99.90;;;;;;5123428;27;20457;-68
2023/06/11 03:24:32;;;;;;;10.70;10.30;;;19.00;99.90;;;;;;5096833;28;20481;-67
2023/06/11 03:27:02;;;;;;;11.10;10.70;;;19.00;99.90;;;;;;5106368;27;20504;-68
2023/06/11 03:29:31;;;;;;;11.23;10.83;;;18.90;99.90;;;;;;5112765;27;20500;-68
2023/06/11 03:31:58;;;;;;;10.87;10.47;;;18.90;99.90;;;;;;5105009;27;20453;-68
2023/06/11 03:34:25;;;;;;;11.27;10.87;;;18.90;99.90;;;;;;5092121;28;20466;-68
2023/06/11 03:36:52;;;;;;;11.93;11.43;;;18.90;99.90;;;;;;5104883;27;20483;-67
2023/06/11 03:39:20;;;;;;;19.43;18.50;;;18.90;99.90;;;;;;5104155;27;20821;-67
2023/06/11 03:41:46;;;;;;;11.57;11.17;;;19.00;99.90;;;;;;5112944;27;20470;-67
2023/06/11 03:44:15;;;;;;;11.00;10.60;;;19.00;99.90;;;;;;5117789;27;20998;-67
2023/06/11 03:46:42;;;;;;;11.33;10.93;;;19.10;99.90;;;;;;5124000;27;20562;-68
2023/06/11 03:49:09;;;;;;;11.00;10.60;;;19.10;99.90;;;;;;5095153;27;20453;-67
2023/06/11 03:51:36;;;;;;;10.00;9.70;;;19.20;99.90;;;;;;5105592;28;20460;-67
2023/06/11 03:54:03;;;;;;;10.23;9.83;;;19.20;99.90;;;;;;5089582;27;20522;-67
2023/06/11 03:56:30;;;;;;;10.93;10.53;;;19.10;99.90;;;;;;5103537;27;20458;-67
2023/06/11 03:58:57;;;;;;;10.70;10.30;;;19.00;99.90;;;;;;5122214;27;20472;-67
2023/06/11 04:01:26;;;;;;;10.80;10.40;;;18.90;99.90;;;;;;5104095;27;20461;-67
2023/06/11 04:03:52;;;;;;;10.60;10.20;;;18.90;99.90;;;;;;5094135;27;20473;-67
2023/06/11 04:06:19;;;;;;;11.50;11.10;;;19.00;99.90;;;;;;5103223;27;20462;-67
2023/06/11 04:08:47;;;;;;;11.43;11.03;;;19.00;99.90;;;;;;5095189;27;20859;-68
2023/06/11 04:11:13;;;;;;;10.67;10.27;;;19.20;99.90;;;;;;5097516;27;20462;-67
2023/06/11 04:13:40;;;;;;;10.90;10.50;;;19.20;99.90;;;;;;5096130;27;20847;-68
2023/06/11 04:16:07;;;;;;;10.70;10.30;;;19.20;99.90;;;;;;5105123;27;20485;-68
2023/06/11 04:18:35;;;;;;;10.60;10.20;;;19.30;99.90;;;;;;5101345;27;20484;-67
2023/06/11 04:21:03;;;;;;;10.70;10.30;;;19.30;99.90;;;;;;5109283;27;20845;-67
2023/06/11 04:23:32;;;;;;;12.47;11.77;;;19.40;99.90;;;;;;5106751;28;20485;-67
2023/06/11 04:26:01;;;;;;;10.50;10.10;;;19.40;99.90;;;;;;5103284;28;20493;-68
2023/06/11 04:28:28;;;;;;;13.07;12.47;;;19.50;99.90;;;;;;5114415;27;20461;-67
2023/06/11 04:30:57;;;;;;;10.90;10.50;;;19.50;99.90;;;;;;5106182;27;20990;-68
2023/06/11 04:33:32;;;;;;;11.93;11.43;;;19.60;99.90;;;;;;5112568;27;20457;-67
2023/06/11 04:36:01;;;;;;;11.77;11.27;;;19.60;99.90;;;;;;5104203;27;20951;-68
2023/06/11 04:38:29;;;;;;;10.83;10.43;;;19.80;99.90;;;;;;5105154;27;20473;-68
2023/06/11 04:40:57;;;;;;;11.00;10.60;;;19.90;99.90;;;;;;5099261;27;20465;-67
2023/06/11 04:43:25;;;;;;;10.90;10.50;;;20.10;99.90;;;;;;5118562;27;20465;-67
2023/06/11 04:45:55;;;;;;;11.23;10.83;;;20.10;99.90;;;;;;5116599;27;20453;-67
2023/06/11 04:48:24;;;;;;;12.20;11.70;;;20.10;99.90;;;;;;5114337;27;20525;-68
2023/06/11 04:50:51;;;;;;;12.00;11.60;;;20.10;99.90;;;;;;5114494;27;20549;-68
2023/06/11 04:53:22;;;;;;;13.57;12.97;;;20.20;99.90;;;;;;5095126;28;20833;-68
2023/06/11 04:55:50;;;;;;;11.60;11.20;;;20.40;99.90;;;;;;5101627;28;20467;-68
2023/06/11 04:58:20;;;;;;;13.10;12.50;;;20.50;99.90;;;;;;5119401;28;20464;-68
2023/06/11 05:00:47;;;;;;;11.67;11.27;;;20.60;99.90;;;;;;5111317;28;20453;-68
2023/06/11 05:03:16;;;;;;;11.40;11.00;;;20.60;99.90;;;;;;5087424;28;20826;-68
2023/06/11 05:05:50;;;;;;;11.90;11.50;;;20.80;99.90;;;;;;5092414;28;20543;-68
2023/06/11 05:08:20;;;;;;;12.87;12.37;;;20.90;99.90;;;;;;5088976;28;20461;-67
2023/06/11 05:10:47;;;;;;;11.90;11.50;;;21.10;99.90;;;;;;5088209;28;20484;-68
2023/06/11 05:13:14;;;;;;;11.70;11.30;;;21.10;99.90;;;;;;5105097;28;20454;-67
2023/06/11 05:15:42;;;;;;;11.63;11.23;;;21.30;99.90;;;;;;5100222;28;20490;-68
2023/06/11 05:18:08;;;;;;;13.43;12.70;;;21.30;99.90;;;;;;5103763;28;20925;-68
2023/06/11 05:20:36;;;;;;;12.50;11.80;;;21.40;99.90;;;;;;5118873;28;21022;-68
2023/06/11 05:23:03;;;;;;;11.90;11.50;;;21.60;99.90;;;;;;5096521;28;20545;-68
2023/06/11 05:25:31;;;;;;;12.50;12.00;;;21.60;99.90;;;;;;5115404;28;20469;-68
2023/06/11 05:28:00;;;;;;;12.73;12.23;;;21.60;99.90;;;;;;5119615;28;20506;-68
2023/06/11 05:30:29;;;;;;;12.40;11.90;;;21.60;99.90;;;;;;5096559;28;21103;-67
2023/06/11 05:32:58;;;;;;;12.77;12.27;;;21.80;99.90;;;;;;5093439;28;20489;-68
2023/06/11 05:35:25;;;;;;;12.20;11.70;;;22.00;99.90;;;;;;5090092;28;20465;-68
2023/06/11 05:37:52;;;;;;;12.57;12.07;;;22.00;99.90;;;;;;5101951;28;20482;-68
2023/06/11 05:40:20;;;;;;;13.00;12.50;;;22.10;99.90;;;;;;5106245;28;20466;-69
2023/06/11 05:42:48;;;;;;;12.73;12.23;;;22.20;99.90;;;;;;5100169;28;20490;-67
2023/06/11 05:45:16;;;;;;;12.40;11.90;;;22.40;99.90;;;;;;5109690;27;20998;-68
2023/06/11 05:47:42;;;;;;;13.00;12.40;;;22.40;99.90;;;;;;5096619;27;20469;-68
2023/06/11 05:50:11;;;;;;;13.20;12.53;;;22.50;99.90;;;;;;5100907;27;21113;-68
2023/06/11 05:52:37;;;;;;;12.83;12.33;;;22.50;99.90;;;;;;5119224;27;20460;-67
2023/06/11 05:55:06;;;;;;;13.33;12.83;;;22.50;99.90;;;;;;5099220;27;20457;-68
2023/06/11 05:57:33;;;;;;;14.23;13.63;;;22.60;99.90;;;;;;5099527;27;20458;-68
2023/06/11 06:00:03;;;;;;;13.33;12.83;;;22.80;99.90;;;;;;5100468;27;20537;-68
2023/06/11 06:02:30;;;;;;;13.00;12.50;;;23.10;99.90;;;;;;5098597;27;20533;-68
2023/06/11 06:04:57;;;;;;;13.30;12.70;;;23.10;99.90;;;;;;5096080;27;20486;-68
2023/06/11 06:07:24;;;;;;;15.03;14.33;;;23.30;99.90;;;;;;5105344;27;20826;-67
2023/06/11 06:09:51;;;;;;;13.30;12.80;;;23.40;99.90;;;;;;5101520;27;20465;-68
2023/06/11 06:12:18;;;;;;;14.70;14.00;;;23.40;99.90;;;;;;5101429;27;20460;-69
2023/06/11 06:14:46;;;;;;;13.60;13.00;;;23.50;99.90;;;;;;5104757;27;20506;-67
2023/06/11 06:17:14;;;;;;;14.37;13.77;;;23.70;99.90;;;;;;5101503;27;21047;-67
2023/06/11 06:19:41;;;;;;;14.20;13.50;;;23.90;99.90;;;;;;5097212;27;20497;-69
2023/06/11 06:22:08;;;;;;;13.63;13.10;;;24.00;99.90;;;;;;5098084;27;20458;-68
2023/06/11 06:24:36;;;;;;;14.23;13.63;;;24.10;99.90;;;;;;5099315;27;20491;-68
2023/06/11 06:27:03;;;;;;;13.57;13.07;;;24.20;99.90;;;;;;5099802;27;20461;-69
2023/06/11 06:29:32;;;;;;;13.87;13.27;;;24.20;99.90;;;;;;5105437;27;20465;-68
2023/06/11 06:31:59;;;;;;;13.40;12.90;;;24.20;99.90;;;;;;5104632;27;21167;-67
2023/06/11 06:34:28;;;;;;;14.10;13.50;;;24.30;99.90;;;;;;5096020;27;20963;-68
2023/06/11 06:36:55;;;;;;;16.83;14.70;;;24.40;99.90;;;;;;5114836;27;21291;-69
2023/06/11 06:39:23;;;;;;;13.33;12.83;;;24.50;99.90;;;;;;5106890;27;20457;-68
2023/06/11 06:41:51;;;;;;;15.40;14.70;;;24.70;99.90;;;;;;5101599;27;20457;-68
2023/06/11 06:44:18;;;;;;;13.67;13.17;;;24.90;99.90;;;;;;5093144;27;20745;-68
2023/06/11 06:46:45;;;;;;;13.90;13.40;;;24.80;99.90;;;;;;5103603;27;20457;-68
2023/06/11 06:49:12;;;;;;;14.50;13.83;;;25.00;99.90;;;;;;5106380;27;20521;-68
2023/06/11 06:51:40;;;;;;;13.77;13.17;;;25.10;99.90;;;;;;5103160;27;20462;-69
2023/06/11 06:54:07;;;;;;;13.60;13.10;;;25.30;99.90;;;;;;5094828;27;20510;-68
2023/06/11 06:56:34;;;;;;;13.30;12.80;;;25.40;99.90;;;;;;5098681;27;20619;-68
2023/06/11 06:59:01;;;;;;;15.83;14.93;;;25.40;99.90;;;;;;5100429;27;20526;-68
2023/06/11 07:01:28;;;;;;;14.20;13.53;;;25.60;99.90;;;;;;5103513;28;20869;-68
2023/06/11 07:03:55;;;;;;;14.27;13.67;;;25.60;99.90;;;;;;5118230;27;20490;-68
2023/06/11 07:06:24;;;;;;;14.47;13.87;;;25.40;99.90;;;;;;5109041;27;20486;-68
2023/06/11 07:08:53;;;;;;;14.70;14.10;;;25.60;99.90;;;;;;5103060;27;20488;-68
2023/06/11 07:11:21;;;;;;;13.73;13.13;;;25.80;99.90;;;;;;5098398;27;20465;-68
2023/06/11 07:13:48;;;;;;;13.70;13.20;;;25.80;99.90;;;;;;5096205;27;20809;-69
2023/06/11 07:16:15;;;;;;;14.50;13.90;;;26.10;99.90;;;;;;5104455;27;20519;-68
2023/06/11 07:18:42;;;;;;;14.10;13.50;;;26.30;99.90;;;;;;5113294;27;20453;-69
2023/06/11 07:21:10;;;;;;;13.80;13.20;;;26.30;99.90;;;;;;5109186;27;20528;-69
2023/06/11 07:23:38;;;;;;;14.33;13.73;;;26.50;99.90;;;;;;5098165;27;20490;-67
2023/06/11 07:26:08;;;;;;;13.87;13.37;;;26.70;99.90;;;;;;5110527;27;20460;-68
2023/06/11 07:28:35;;;;;;;13.83;13.33;;;26.50;99.90;;;;;;5097693;27;20464;-69
2023/06/11 07:31:02;;;;;;;14.83;14.23;;;26.80;99.90;;;;;;5108167;27;20497;-68
2023/06/11 07:33:29;;;;;;;14.77;14.07;;;26.90;99.90;;;;;;5111118;27;20516;-68
2023/06/11 07:35:56;;;;;;;13.27;12.77;;;26.70;99.90;;;;;;5103919;27;20471;-69
2023/06/11 07:38:24;;;;;;;13.27;12.77;;;26.80;99.90;;;;;;5098934;27;20549;-68
2023/06/11 07:40:52;;;;;;;13.33;12.83;;;27.00;99.90;;;;;;5098440;27;20461;-69
2023/06/11 07:43:21;;;;;;;14.60;13.90;;;27.20;99.90;;;;;;5095777;27;20981;-68
2023/06/11 07:45:47;;;;;;;13.27;12.77;;;27.20;99.90;;;;;;5095516;27;20481;-68
2023/06/11 07:48:15;;;;;;;13.20;12.70;;;27.50;99.90;;;;;;5093511;28;20485;-67
2023/06/11 07:50:42;;;;;;;13.40;12.90;;;27.50;99.90;;;;;;5093537;28;20464;-68
2023/06/11 07:53:12;;;;;;;13.63;13.13;;;27.60;99.90;;;;;;5099259;27;20549;-68
2023/06/11 07:55:40;;;;;;;14.47;13.70;;;27.80;99.90;;;;;;5093850;27;20457;-68
2023/06/11 07:58:08;;;;;;;14.63;14.03;;;27.90;99.90;;;;;;5090861;27;20461;-68
2023/06/11 08:00:37;;;;;;;13.77;13.27;;;28.10;99.90;;;;;;5100271;27;20453;-68
2023/06/11 08:03:04;;;;;;;15.23;14.43;;;28.30;99.90;;;;;;5097081;28;21159;-68
2023/06/11 08:05:31;;;;;;;14.80;14.20;;;28.70;99.90;;;;;;5101329;27;20492;-70
2023/06/11 08:07:57;;;;;;;14.10;13.60;;;29.50;99.90;;;;;;5102147;28;20453;-69
2023/06/11 08:10:24;;;;;;;13.60;13.10;;;30.00;99.90;;;;;;5103931;27;20462;-68
2023/06/11 08:12:51;;;;;;;14.10;13.50;;;30.10;99.90;;;;;;5099489;27;20831;-69
2023/06/11 08:15:20;;;;;;;13.83;13.33;;;31.00;99.90;;;;;;5100381;27;20493;-67
2023/06/11 08:17:48;;;;;;;14.00;13.50;;;31.40;99.90;;;;;;5099122;27;20461;-69
2023/06/11 08:20:16;;;;;;;15.07;14.47;;;31.60;99.90;;;;;;5102268;27;20458;-69
2023/06/11 08:22:43;;;;;;;14.93;14.03;;;32.20;99.90;;;;;;5107750;27;20871;-69
2023/06/11 08:25:12;;;;;;;13.73;13.20;;;32.30;99.00;;;;;;5096434;27;21059;-69
2023/06/11 08:27:39;;;;;;;15.97;15.27;;;31.70;97.10;;;;;;5093715;27;20442;-69
2023/06/11 08:30:09;;;;;;;14.30;13.70;;;30.80;97.20;;;;;;5103072;27;20942;-69
2023/06/11 08:32:35;;;;;;;13.63;13.03;;;31.10;97.50;;;;;;5100535;27;21010;-69
2023/06/11 08:35:05;;;;;;;15.33;14.40;;;30.80;97.50;;;;;;5099861;27;20465;-69
2023/06/11 08:37:33;;;;;;;13.10;12.60;;;31.60;97.80;;;;;;5095503;28;20872;-69
2023/06/11 08:39:59;;;;;;;14.53;13.93;;;31.70;96.10;;;;;;5097725;28;20462;-69
2023/06/11 08:42:26;;;;;;;14.57;13.97;;;31.70;95.80;;;;;;5097440;28;20468;-69
2023/06/11 08:47:38;;;;;;;14.10;13.60;;;31.90;94.70;;;;;;5098237;27;20993;-69
2023/06/11 08:50:07;;;;;;;14.20;13.70;;;31.90;93.90;;;;;;5085893;28;20547;-68
2023/06/11 08:52:35;;;;;;;15.77;14.97;;;32.30;93.80;;;;;;5113122;27;20460;-69
2023/06/11 08:55:04;;;;;;;16.00;15.30;;;32.00;92.40;;;;;;5092134;28;20895;-69
2023/06/11 08:57:32;;;;;;;14.60;13.97;;;32.10;92.80;;;;;;5107067;28;20490;-69
2023/06/11 09:00:00;;;;;;;13.80;13.20;;;32.20;92.50;;;;;;5103501;28;20453;-70
2023/06/11 09:02:26;;;;;;;15.30;14.60;;;32.40;92.90;;;;;;5099538;28;20519;-68
2023/06/11 09:04:53;;;;;;;13.20;12.70;;;32.80;92.50;;;;;;5096849;28;21316;-69
2023/06/11 09:07:25;;;;;;;14.80;14.10;;;33.30;92.20;;;;;;5093636;28;20457;-69
2023/06/11 09:10:08;;;;;;;14.60;14.00;;;33.70;90.90;;;;;;5085530;28;20469;-69
2023/06/11 09:12:36;;;;;;;13.70;13.20;;;34.20;89.50;;;;;;5102431;28;20458;-69
2023/06/11 09:15:05;;;;;;;14.20;13.70;;;34.10;87.50;;;;;;5097894;28;20465;-69
2023/06/11 09:17:36;;;;;;;13.40;12.90;;;33.80;86.70;;;;;;5101352;28;20548;-70
2023/06/11 09:20:06;;;;;;;14.17;13.57;;;34.20;86.60;;;;;;5103039;27;20463;-69
2023/06/11 09:22:36;;;;;;;13.67;13.13;;;34.20;83.90;;;;;;5100751;27;20461;-70
2023/06/11 09:25:05;;;;;;;13.57;13.07;;;34.10;85.40;;;;;;5105566;27;20576;-69
2023/06/11 09:27:32;;;;;;;13.50;13.00;;;34.30;85.40;;;;;;5110287;27;20560;-69
2023/06/11 09:30:08;;;;;;;15.20;14.40;;;34.60;84.00;;;;;;5115638;27;20555;-70
2023/06/11 09:32:39;;;;;;;13.10;12.60;;;34.80;81.60;;;;;;5088006;28;22370;-68
2023/06/11 09:35:08;;;;;;;13.33;12.83;;;34.60;81.20;;;;;;5102054;27;20461;-69
2023/06/11 09:37:42;;;;;;;14.53;13.93;;;34.70;82.20;;;;;;5106828;27;20477;-68
2023/06/11 09:40:16;;;;;;;13.33;12.83;;;35.00;80.30;;;;;;5096578;27;20480;-68
2023/06/11 09:42:45;;;;;;;13.23;12.73;;;35.20;79.00;;;;;;5124764;27;21003;-68
2023/06/11 09:45:16;;;;;;;13.50;12.90;;;35.50;77.90;;;;;;5110547;27;20488;-67
2023/06/11 09:47:45;;;;;;;13.00;12.50;;;35.60;76.40;;;;;;5111851;27;20452;-67
2023/06/11 09:50:14;;;;;;;12.80;12.30;;;35.50;75.10;;;;;;5099026;27;20944;-68
2023/06/11 09:52:43;;;;;;;48.47;15.70;;;35.00;74.30;;;;;;5099314;27;20548;-68
2023/06/11 09:55:12;;;;;;;12.90;12.40;;;35.50;74.20;;;;;;5095536;27;20960;-69
2023/06/11 09:57:40;;;;;;;14.33;13.73;;;36.10;72.60;;;;;;5102667;27;20464;-69
2023/06/11 10:00:09;;;;;;;12.90;12.40;;;36.10;68.90;;;;;;5105188;27;20502;-70
2023/06/11 10:02:38;;;;;;;13.47;12.97;;;35.50;70.10;;;;;;5099623;27;20969;-70
2023/06/11 10:05:07;;;;;;;13.37;12.87;;;35.50;71.50;;;;;;5093642;27;20596;-70
2023/06/11 10:07:39;;;;;;;13.03;12.53;;;36.20;70.90;;;;;;5096923;27;20901;-70
2023/06/11 10:10:10;;;;;;;12.90;12.30;;;36.40;67.80;;;;;;5090511;27;20552;-70
2023/06/11 10:12:37;;;;;;;13.80;13.27;;;35.90;68.40;;;;;;5095850;27;20453;-69
2023/06/11 10:15:05;;;;;;;13.27;12.70;;;36.50;68.40;;;;;;5101169;28;20548;-69
2023/06/11 10:17:32;;;;;;;13.13;12.63;;;36.90;64.10;;;;;;5102196;28;20453;-69
2023/06/11 10:19:59;;;;;;;12.90;12.40;;;36.00;63.20;;;;;;5100820;27;20464;-68
2023/06/11 10:22:33;;;;;;;44.40;12.93;;;36.60;63.00;;;;;;5093176;28;20499;-69
2023/06/11 10:25:01;;;;;;;12.90;12.40;;;36.30;62.20;;;;;;5104248;28;20555;-67
2023/06/11 10:27:41;;;;;;;12.90;12.40;;;36.10;63.40;;;;;;5100620;28;21049;-68
2023/06/11 10:30:09;;;;;;;15.13;14.43;;;36.50;60.30;;;;;;5099021;27;20449;-68
2023/06/11 10:32:36;;;;;;;13.33;12.83;;;36.00;59.40;;;;;;5104406;27;20458;-69
2023/06/11 10:35:06;;;;;;;13.17;12.67;;;36.90;59.30;;;;;;5095877;27;20519;-69
2023/06/11 10:37:35;;;;;;;13.20;12.60;;;36.90;58.40;;;;;;5096434;28;20831;-69
2023/06/11 10:40:03;;;;;;;13.33;12.83;;;36.90;58.10;;;;;;5090748;27;20453;-68
2023/06/11 10:42:36;;;;;;;14.13;13.53;;;36.70;57.20;;;;;;5099208;27;20446;-69
2023/06/11 10:45:09;;;;;;;14.03;13.43;;;36.20;56.50;;;;;;5100059;27;20859;-69
2023/06/11 10:47:43;;;;;;;13.53;12.93;;;35.70;57.50;;;;;;5093804;27;20468;-69
2023/06/11 10:50:12;;;;;;;12.93;12.43;;;35.70;57.90;;;;;;5091774;27;20486;-69
2023/06/11 10:52:50;;;;;;;14.50;13.70;;;35.90;58.60;;;;;;5097085;28;20807;-69
2023/06/11 10:55:17;;;;;;;13.80;13.10;;;36.30;58.00;;;;;;5097121;27;20470;-69
2023/06/11 10:57:45;;;;;;;13.30;12.80;;;36.20;57.90;;;;;;5098631;27;20465;-69
2023/06/11 11:00:14;;;;;;;12.30;11.90;;;36.50;57.80;;;;;;5096918;27;20545;-68
2023/06/11 11:02:42;;;;;;;13.40;12.80;;;36.60;56.90;;;;;;5095233;27;20478;-69
2023/06/11 11:05:10;;;;;;;12.87;12.37;;;36.60;57.10;;;;;;5103997;27;20806;-69
2023/06/11 11:07:38;;;;;;;14.63;13.73;;;37.20;57.50;;;;;;5105027;27;20825;-69
2023/06/11 11:10:07;;;;;;;13.57;12.97;;;37.60;56.20;;;;;;5095871;27;20465;-69
2023/06/11 11:12:42;;;;;;;13.57;12.97;;;37.20;55.70;;;;;;5097900;27;20480;-69
2023/06/11 11:15:12;;;;;;;14.40;13.63;;;37.00;54.10;;;;;;5086899;28;20489;-69
2023/06/11 11:17:42;;;;;;;13.73;13.13;;;37.40;54.90;;;;;;5102805;27;20458;-69
2023/06/11 11:20:10;;;;;;;13.03;12.53;;;37.50;55.40;;;;;;5094213;27;20519;-69
2023/06/11 11:22:37;;;;;;;13.53;13.03;;;37.30;52.80;;;;;;5109285;27;20457;-69
2023/06/11 11:25:06;;;;;;;12.90;12.40;;;36.80;52.30;;;;;;5093592;28;20454;-68
2023/06/11 11:27:37;;;;;;;12.90;12.40;;;36.90;52.70;;;;;;5097842;28;20827;-69
2023/06/11 11:30:06;;;;;;;12.87;12.37;;;37.50;52.90;;;;;;5094196;28;20512;-68
2023/06/11 11:32:34;;;;;;;15.50;14.40;;;38.40;51.70;;;;;;5096903;27;20963;-69
2023/06/11 11:35:04;;;;;;;15.33;14.33;;;38.20;49.20;;;;;;5095415;27;20466;-69
2023/06/11 11:37:32;;;;;;;12.63;12.17;;;38.50;49.10;;;;;;5098875;27;20484;-69
2023/06/11 11:40:06;;;;;;;15.00;14.40;;;38.50;49.50;;;;;;5097003;27;20488;-69
2023/06/11 11:42:33;;;;;;;14.23;13.20;;;38.70;50.20;;;;;;5095300;27;20481;-70
2023/06/11 11:45:00;;;;;;;12.93;12.43;;;38.80;48.30;;;;;;5104696;27;21097;-69
2023/06/11 11:47:29;;;;;;;16.90;15.80;;;38.60;48.50;;;;;;5094179;28;20464;-69
2023/06/11 11:49:57;;;;;;;12.87;12.37;;;38.00;48.70;;;;;;5115794;27;20448;-69
2023/06/11 11:52:27;;;;;;;13.23;12.70;;;37.60;48.80;;;;;;5096644;27;20465;-70
2023/06/11 11:54:57;;;;;;;14.03;13.43;;;37.90;49.10;;;;;;5093616;27;20465;-69
2023/06/11 11:57:25;;;;;;;12.80;12.30;;;37.90;48.60;;;;;;5101840;27;21008;-69
2023/06/11 11:59:54;;;;;;;15.10;14.30;;;37.90;48.30;;;;;;5110792;27;20468;-69
2023/06/11 12:02:27;;;;;;;14.00;13.40;;;37.90;48.80;;;;;;5097070;27;20560;-70
2023/06/11 12:05:00;;;;;;;14.23;13.63;;;37.90;48.20;;;;;;5089414;28;20464;-68
2023/06/11 12:07:28;;;;;;;12.40;12.00;;;37.80;47.90;;;;;;5093448;27;21054;-69
2023/06/11 12:09:55;;;;;;;12.50;12.00;;;38.50;48.50;;;;;;5112210;27;20797;-68
2023/06/11 12:12:22;;;;;;;13.93;13.27;;;38.40;48.10;;;;;;5105170;27;20465;-69
2023/06/11 12:14:50;;;;;;;19.13;13.13;;;38.50;47.80;;;;;;5108658;27;20955;-69
2023/06/11 12:17:17;;;;;;;13.00;12.50;;;38.90;48.00;;;;;;5100485;27;20460;-68
2023/06/11 12:19:44;;;;;;;12.70;12.20;;;39.80;47.00;;;;;;5089655;27;20470;-68
2023/06/11 12:22:13;;;;;;;13.67;12.97;;;40.10;47.60;;;;;;5092144;27;20448;-68
2023/06/11 12:24:41;;;;;;;12.30;11.90;;;40.10;46.00;;;;;;5105242;27;20847;-69
2023/06/11 12:27:08;;;;;;;12.47;11.97;;;40.10;46.00;;;;;;5097595;27;21013;-70
2023/06/11 12:29:36;;;;;;;13.37;12.83;;;39.90;45.60;;;;;;5107654;27;20446;-70
2023/06/11 12:32:03;;;;;;;12.87;12.37;;;40.00;44.60;;;;;;5093126;28;21195;-69
2023/06/11 12:34:30;;;;;;;14.30;13.43;;;40.30;44.40;;;;;;5094431;27;20456;-69
2023/06/11 12:36:57;;;;;;;12.47;11.80;;;40.10;45.20;;;;;;5102696;27;20476;-68